Richmond North's Hourly Summary for Sunday, May 13, 2018
Hour Temp
(f)
RH
(%)
Solar Rad.
(MJ/m2)
Rainfall
(in)
Wind
(mph)
5/13/2018 12:00 AM 73 94 0 0 0.87
5/13/2018 1:00 AM 72 96 0 0 0.17
5/13/2018 2:00 AM 71 97 0 0 0.06
5/13/2018 3:00 AM 70 98 0 0 0
5/13/2018 4:00 AM 68 98 0 0 0
5/13/2018 5:00 AM 69 98 0 0 0.01
5/13/2018 6:00 AM 69 99 0.05 0 0
5/13/2018 7:00 AM 72 97 0.4 0 0.7
5/13/2018 8:00 AM 77 81 0.55 0 3.49
5/13/2018 9:00 AM 81 65 1.75 0 4.5
5/13/2018 10:00 AM 83 61 2.56 0 4.9
5/13/2018 11:00 AM 85 54 2.72 0 4.18
5/13/2018 12:00 PM 87 48 2.87 0 4.51
5/13/2018 1:00 PM 88 48 2.71 0 4.79
5/13/2018 2:00 PM 89 48 2.66 0 4.91
5/13/2018 3:00 PM 89 50 2.91 0 5.02
5/13/2018 4:00 PM 89 50 2.45 0 6.02
5/13/2018 5:00 PM 87 51 1.78 0 6.46
5/13/2018 6:00 PM 85 57 0.93 0 6.15
5/13/2018 7:00 PM 81 64 0.19 0 5.14
5/13/2018 8:00 PM 78 71 0 0 2.72
5/13/2018 9:00 PM 76 80 0 0 2.82
5/13/2018 10:00 PM 75 86 0 0 4.05
5/13/2018 11:00 PM 74 90 0 0 2.11
Data Summary 78 74 24.53 0.00 3.07